Aérodrome :
LOGIN :

S'inscrire | Disclaimer

   EN    FR    IT 

 










Légende :    VFR   VFR Marginal   IFR   IFR Intensif   IFR Très Intensif
Visi : 
Plafond : 
>= 8 km
>= 3000ft
5 à 8 km
1000 à 3000 ft
1500m à 5 km
500 à 1000 ft
800 à 1500m
200 à 500 ft
< 800m
< 200 ft
Symboles :   Orages  Brouillard  Fortes neiges  Fortes précipitations  Vent > 20 kt
SIGMETs :   Divers  Orages  Givrage  Turbulence  Onde Orograph.  Cendres Volcan.






- Altitude de l'aérodrome : 443 ft
- Code IATA : SQQ


EYSA - Siauliai

DERNIER METAR :
  • 301050Z 31006KT 230V360 CAVOK 03/M13 Q1019 R14L/19//95 R14R/19//95 BLU NOSIG

METARs EXPIRÉS :
  • 301020Z 31008KT CAVOK 02/M14 Q1020 R14L/19//95 R14R/19//95 BLU NOSIG
  • 300950Z VRB04KT CAVOK 02/M13 Q1020 R14L/19//95 R14R/19//95 BLU NOSIG
  • 300920Z 22004KT 160V310 CAVOK 01/M12 Q1020 R14L/19//95 R14R/19//95 BLU NOSIG
  • 300850Z VRB03KT CAVOK 01/M12 Q1020 R14L/19//95 R14R/19//95 BLU NOSIG
  • 300820Z VRB02KT CAVOK 01/M11 Q1020 R14L/19//95 R14R/19//95 BLU NOSIG
  • 300750Z 32003KT 260V020 CAVOK 00/M08 Q1020 R14L/19//95 R14R/19//95 BLU NOSIG

TAF TAF EYSA
Valide du 30 à 09h jusqu'au 30 à 18h UTC


300800Z 3009/3018 VRB05KT 9000 SCT025
PROB40
TEMPO 3009/3012 0800 +SHSNRA BKN005 BKN015CB
FM301200 BKN025
TEMPO 3012/3018 0800 +SHSNRA BKN005 BKN012CB
PROB40
TEMPO 3012/3018 TS



MET'MAP, la Météo Aéronautique d'un coup d'oeil ! - Copyright ORBIFLY Décembre 2007 - Disclaimer

ORBIFLY MET'MAP TEAM :

Programmation & Développement : Alexandra Zaïnal
Sur une idée originale de : Baudouin d'Aumeries
Assistance à la programmation : Marc-Olivier Méhu
Soutien technique & logistique : Manuel Goepfert

Contact : metmap@orbifly.com




SOURCES & CREDITS :

   NOAA